• Join FlightAware (Why Join?)
  • Login
  • US Flag 
09:25AM EDT


 

Airport Tracker/Info


-or-


 

Live Flight TrackerFlight Track Log ✈ AWI3629 ✈ 31-Jul-2013 ✈ KBGR - KDCA

Flight Track Log - Related Links

Times and Time Zones

All times are in EDT time to prevent confusion due to time zone crossing. See the AWI3629 flight status page for this flight to view local times or setup timezone preferences in your user account.

Time Position Orientation Groundspeed Altitude Reporting Facility
EDT Latitude Longitude Course Direction KTS MPH feet Rate Location/Type
05:27PM 44.6030 -69.0881 222° Southwest  Level FlightAware Approximate
05:27PM 44.8058 -68.9961 226° Southwest 219 252 4,800  Level Boston Center
05:28PM 44.5331 -69.1753 222° Southwest  Level FlightAware Approximate
05:28PM 44.7475 -69.0639 220° Southwest 249 287 7,500  Level Boston Center
05:29PM 44.4656 -69.2659 226° Southwest  Level FlightAware Approximate
05:29PM 44.6869 -69.1347 220° Southwest 279 321 10,200  Level Boston Center
05:30PM 44.4002 -69.3593 226° Southwest  Level FlightAware Approximate
05:30PM 44.6267 -69.2108 222° Southwest 291 335 12,300  Level Boston Center
05:31PM 44.3313 -69.4476 221° Southwest  Level FlightAware Approximate
05:31PM 44.5511 -69.2675 208° Southwest 302 348 14,400  Level Boston Center
05:32PM 44.2612 -69.5340 221° Southwest  Level FlightAware Approximate
05:32PM 44.4689 -69.3128 201° Southwest 308 354 16,300  Level Boston Center
05:33PM 44.3958 -69.3833 215° Southwest 318 366 17,600 1,140 Climbing Boston Center
05:35PM 44.2431 -69.5247 214° Southwest 342 394 19,900 1,200 Climbing Boston Center
05:36PM 44.1636 -69.5981 214° Southwest 347 399 21,200 1,200 Climbing Boston Center
05:37PM 44.0986 -69.6589 214° Southwest 347 399 22,300 1,200 Climbing Boston Center
05:38PM 44.0006 -69.7500 214° Southwest 347 399 23,700 1,200 Climbing Boston Center
05:39PM 43.9169 -69.8231 212° Southwest 352 405 24,700 960 Climbing Boston Center
05:40PM 43.8331 -69.8986 213° Southwest 357 411 25,600 840 Climbing Boston Center
05:41PM 43.7472 -69.9797 214° Southwest 369 425 26,500 720 Climbing Boston Center
05:43PM 43.6614 -70.0550 212° Southwest 369 425 27,200 600 Climbing Boston Center
05:44PM 43.5592 -70.1481 213° Southwest 369 425 27,900 660 Climbing Boston Center
05:44PM 43.4689 -70.2314 214° Southwest 374 430 28,600 660 Climbing Boston Center
05:45PM 43.3808 -70.3089 213° Southwest 374 430 29,300 660 Climbing Boston Center
05:46PM 43.2928 -70.3892 214° Southwest 379 436 30,000 300 Climbing Boston Center
05:48PM 43.2044 -70.4689 213° Southwest 385 443 30,000  Level Boston Center
05:48PM 43.1142 -70.5517 214° Southwest 385 443 30,000  Level Boston Center
05:49PM 43.0258 -70.6281 212° Southwest 385 443 30,000  Level Boston Center
05:50PM 42.9353 -70.7072 213° Southwest 385 443 30,000  Level Boston Center
05:51PM 42.8653 -70.7689 213° Southwest 385 443 30,000  Level Boston Center
05:53PM 42.7606 -70.8650 214° Southwest 385 443 30,000  Level Boston Center
05:54PM 42.6703 -70.9744 222° Southwest 385 443 30,000  Level Boston Center
05:55PM 42.6133 -71.0889 236° Southwest 369 425 30,000  Level Boston Center
05:56PM 42.5542 -71.2028 235° Southwest 376 433 30,000  Level Boston Center
05:57PM 42.4928 -71.3194 235° Southwest 376 433 30,000  Level Boston Center
05:58PM 42.4356 -71.4358 236° Southwest 381 438 30,000  Level Boston Center
05:59PM 42.3617 -71.5692 233° Southwest 376 433 30,000  Level Boston Center
06:00PM 42.3019 -71.6794 234° Southwest 376 433 30,000  Level Boston Center
06:01PM 42.2547 -71.7697 235° Southwest 376 433 30,000  Level Boston Center
06:02PM 42.1844 -71.9050 235° Southwest 376 433 30,000  Level Boston Center
06:03PM 42.1244 -72.0175 234° Southwest 376 433 30,000  Level Boston Center
06:04PM 42.0664 -72.1297 235° Southwest 376 433 30,000  Level Boston Center
06:05PM 42.0064 -72.2417 234° Southwest 376 433 30,000  Level Boston Center
06:06PM 41.9461 -72.3536 234° Southwest 376 433 30,000  Level Boston Center
06:07PM 41.8772 -72.4875 235° Southwest 376 433 30,000  Level Boston Center
06:08PM 41.8147 -72.5989 233° Southwest 376 433 30,000  Level Boston Center
06:09PM 41.7561 -72.7072 234° Southwest 376 433 30,000  Level Boston Center
06:10PM 41.6975 -72.8181 235° Southwest 376 433 30,000  Level Boston Center
06:11PM 41.6386 -72.9317 235° Southwest 376 433 30,000  Level Boston Center
06:12PM 41.5778 -73.0394 233° Southwest 376 433 30,000  Level Boston Center
06:13PM 41.5228 -73.1444 235° Southwest 371 427 30,000  Level Boston Center
06:14PM 41.4617 -73.2544 233° Southwest 364 419 30,000  Level Boston Center
06:16PM 41.3169 -73.5197 234° Southwest 373 429 30,000  Level New York Center
06:17PM 41.2561 -73.6275 233° Southwest 378 435 30,000  Level New York Center
06:18PM 41.1997 -73.7244 232° Southwest 378 435 30,000  Level New York Center
06:19PM 41.1367 -73.8292 231° Southwest 378 435 30,000 -60 Level New York Center
06:20PM 41.0733 -73.9392 233° Southwest 378 435 29,900 -300 Descending New York Center
06:21PM 41.0078 -74.0461 231° Southwest 378 435 29,400 -540 Descending New York Center
06:22PM 40.9381 -74.1606 231° Southwest 383 441 28,900 -600 Descending New York Center
06:23PM 40.8572 -74.2828 229° Southwest 396 456 28,300 -540 Descending New York Center
06:24PM 40.7892 -74.4000 233° Southwest 403 464 27,900 -180 Descending New York Center
06:25PM 40.7189 -74.5139 231° Southwest 408 470 28,000  Climbing New York Center
06:26PM 40.6506 -74.6278 232° Southwest 408 470 27,900 -1,080 Descending New York Center
06:27PM 40.5864 -74.7417 233° Southwest 403 464 25,900 -1,920 Descending New York Center
06:28PM 40.5164 -74.8386 226° Southwest 392 451 24,100 -1,800 Descending New York Center
06:29PM 40.4508 -74.9303 227° Southwest 369 425 22,300 -1,860 Descending New York Center
06:30PM 40.3850 -75.0244 227° Southwest 357 411 20,500 -1,860 Descending New York Center
06:31PM 40.3103 -75.1258 226° Southwest 377 434 18,700 -1,260 Descending New York Center
06:32PM 40.2422 -75.2222 227° Southwest 384 442 18,000 -360 Descending New York Center
06:33PM 40.1717 -75.3183 226° Southwest 379 436 18,000  Level New York Center
06:34PM 40.1078 -75.4064 227° Southwest 374 430 18,000  Level New York Center
06:35PM 40.0306 -75.5150 227° Southwest 381 438 18,000  Level New York Center
06:36PM 39.9644 -75.6053 226° Southwest 381 438 18,000 -480 Level New York Center
06:37PM 39.8883 -75.7272 231° Southwest 392 451 17,100 -540 Descending New York Center
06:38PM 39.8342 -75.8261 235° Southwest 391 450 17,000 -120 Descending New York Center
06:39PM 39.7650 -75.9347 230° Southwest 380 437 16,900 -780 Descending New York Center
06:40PM 39.7022 -76.0300 229° Southwest 375 432 15,500 -1,620 Descending New York Center
06:41PM 39.6306 -76.1406 230° Southwest 368 423 13,700 -1,680 Descending New York Center
06:42PM 39.5667 -76.2333 228° Southwest 340 391 12,300 -900 Descending Potomac TRACON
06:43PM 39.5167 -76.3167 232° Southwest 329 379 12,000 -180 Descending Potomac TRACON
06:44PM 39.4500 -76.4167 229° Southwest 333 383 12,000 -120 Level Potomac TRACON
06:45PM 39.3833 -76.4833 218° Southwest 323 372 11,800 -960 Descending Potomac TRACON
06:46PM 39.3167 -76.5333 210° Southwest 306 352 10,200 -900 Descending Potomac TRACON
06:47PM 39.2500 -76.6000 218° Southwest 287 330 10,000 -120 Descending Potomac TRACON
06:48PM 39.1833 -76.6500 210° Southwest 276 318 10,000  Level Potomac TRACON
06:49PM 39.1500 -76.7500 247° West 278 320 10,000 -240 Level Potomac TRACON
06:50PM 39.1167 -76.8500 247° West 277 319 9,500 -1,320 Descending Potomac TRACON
06:51PM 39.1000 -76.9333 256° West 281 323 7,500 -1,440 Descending Potomac TRACON
06:52PM 39.0833 -77.0167 256° West 243 280 6,700 -900 Descending Potomac TRACON
06:53PM 39.0667 -77.0833 252° West 201 231 5,800 -1,380 Descending Potomac TRACON
06:54PM 39.0667 -77.1667 270° West 199 229 4,100 -1,440 Descending Potomac TRACON
06:55PM 39.0500 -77.2167 247° West 169 194 3,000 -600 Descending Potomac TRACON
06:56PM 39.0167 -77.2000 159° South 170 196 3,000  Level Potomac TRACON
06:57PM 38.9667 -77.1500 142° Southeast 177 204 3,000 -480 Level Potomac TRACON
06:58PM 38.9333 -77.1167 142° Southeast 171 197 2,100 -960 Descending Potomac TRACON
06:59PM 38.9000 -77.0833 142° Southeast 161 185 1,100 -780 Descending Potomac TRACON
07:00PM 38.8833 -77.0500 123° Southeast 134 154 500 -600 Descending Potomac TRACON
07:02PM 38.8519 -77.0377 142° Southeast  Level Estimated
07:09PM 38.8519 -77.0377 339° North  Level Estimated
07:10PM 38.8519 -77.0377 North  Level Estimated
07:11PM 38.8519 -77.0377 343° North  Level Estimated